createdAt,value
2023-04-04T00:05:21.894Z,99480.97
2023-04-04T00:25:23.341Z,99476.75
2023-04-04T00:45:24.844Z,99485.47
2023-04-04T01:05:26.560Z,99483.97
2023-04-04T01:25:27.990Z,99494.81
2023-04-04T01:45:32.328Z,99463.50
2023-04-04T02:05:35.838Z,99473.53
2023-04-04T02:25:37.483Z,99458.75
2023-04-04T02:45:39.201Z,99442.25
2023-04-04T03:05:49.677Z,99432.25
2023-04-04T03:25:51.444Z,99413.13
2023-04-04T03:45:53.395Z,99412.19
2023-04-04T04:05:55.205Z,99402.09
2023-04-04T04:25:57.082Z,99412.31
2023-04-04T04:46:01.133Z,99437.41
2023-04-04T05:06:02.725Z,99467.25
2023-04-04T05:26:06.269Z,99494.94
2023-04-04T05:46:11.747Z,99495.50
2023-04-04T06:06:19.774Z,99497.53
2023-04-04T06:26:23.037Z,99478.56
2023-04-04T06:46:26.197Z,99476.94
2023-04-04T07:06:30.017Z,99494.09
2023-04-04T07:26:34.455Z,99489.00
2023-04-04T07:46:36.211Z,99464.38
2023-04-04T08:27:04.669Z,99467.09
2023-04-04T08:47:07.508Z,99434.44
2023-04-04T09:48:20.664Z,99433.97
2023-04-04T10:08:22.833Z,99415.16
2023-04-04T10:28:24.322Z,99402.53
2023-04-04T10:48:26.077Z,99360.94
2023-04-04T11:08:27.536Z,99348.59
2023-04-04T11:28:29.424Z,99301.69
2023-04-04T11:48:31.219Z,99279.66
2023-04-04T12:08:32.888Z,99264.00
2023-04-04T12:28:34.389Z,99274.66
2023-04-04T12:48:35.981Z,99253.22
2023-04-04T13:08:39.618Z,99248.84
2023-04-04T13:28:41.136Z,99243.31
2023-04-04T13:48:42.719Z,99242.22
2023-04-04T14:08:44.305Z,99249.19
2023-04-04T14:28:48.404Z,99254.66
2023-04-04T14:48:50.107Z,99260.16
2023-04-04T15:08:51.576Z,99271.66
2023-04-04T15:28:53.210Z,99273.00
2023-04-04T15:48:54.822Z,99279.69
2023-04-04T16:09:08.797Z,99308.03
2023-04-04T16:29:10.441Z,99319.66
2023-04-04T16:49:12.119Z,99324.53
2023-04-04T17:09:13.734Z,99332.72
2023-04-04T17:29:15.830Z,99345.03
2023-04-04T17:49:17.449Z,99369.22
2023-04-04T18:09:19.037Z,99391.41
2023-04-04T18:29:20.660Z,99422.75
2023-04-04T18:49:22.229Z,99433.50
2023-04-04T19:09:24.766Z,99454.41
2023-04-04T19:29:26.379Z,99476.31
2023-04-04T19:49:28.066Z,99493.88
2023-04-04T20:09:29.674Z,99488.50
2023-04-04T20:50:23.319Z,99498.63
2023-04-04T21:30:52.283Z,99505.78
2023-04-04T21:50:56.997Z,99499.75
2023-04-04T22:11:00.631Z,99496.56
2023-04-04T22:31:03.459Z,99490.56
2023-04-04T22:51:05.300Z,99478.38
2023-04-04T23:11:06.872Z,99476.44
2023-04-04T23:31:08.903Z,99466.09
2023-04-04T23:51:10.528Z,99450.19
